createdAt,value
2019-04-26T00:01:24.307Z,60.80
2019-04-26T00:03:54.226Z,60.50
2019-04-26T00:06:36.790Z,61.60
2019-04-26T00:09:13.955Z,60.40
2019-04-26T00:11:45.142Z,60.70
2019-04-26T00:14:18.904Z,60.50
2019-04-26T00:16:50.268Z,59.70
2019-04-26T00:19:19.876Z,60.60
2019-04-26T00:21:49.791Z,60.10
2019-04-26T00:24:20.016Z,60.00
2019-04-26T00:26:49.620Z,61.60
2019-04-26T00:29:19.230Z,61.30
2019-04-26T00:31:49.143Z,60.80
2019-04-26T00:34:19.613Z,60.80
2019-04-26T00:37:08.626Z,61.10
2019-04-26T00:39:38.180Z,60.70
2019-04-26T00:42:06.962Z,63.10
2019-04-26T00:44:36.370Z,65.90
2019-04-26T00:47:05.154Z,65.50
2019-04-26T00:49:43.499Z,65.90
2019-04-26T00:52:25.284Z,65.00
2019-04-26T00:55:06.807Z,65.70
2019-04-26T00:57:36.367Z,65.90
2019-04-26T01:00:05.930Z,66.00
2019-04-26T01:02:37.335Z,65.90
2019-04-26T01:05:06.964Z,64.80
2019-04-26T01:07:36.517Z,64.90
2019-04-26T01:10:05.367Z,66.20
2019-04-26T01:12:34.912Z,65.30
2019-04-26T01:15:06.731Z,65.90
2019-04-26T01:17:36.459Z,66.00
2019-04-26T01:20:06.871Z,66.00
2019-04-26T01:22:39.654Z,65.30
2019-04-26T01:25:18.874Z,65.10
2019-04-26T01:28:01.553Z,65.00
2019-04-26T01:30:31.180Z,65.20
2019-04-26T01:33:01.711Z,65.40
2019-04-26T01:35:50.721Z,65.40
2019-04-26T01:38:20.723Z,65.20
2019-04-26T01:40:52.884Z,65.90
2019-04-26T01:43:33.301Z,65.50
2019-04-26T01:46:07.131Z,64.70
2019-04-26T01:49:21.362Z,65.20
2019-04-26T01:52:00.165Z,61.60
2019-04-26T01:54:32.902Z,62.90
2019-04-26T01:57:04.535Z,63.60
2019-04-26T01:59:34.163Z,63.50
2019-04-26T02:02:05.351Z,64.10
2019-04-26T02:04:36.483Z,64.10
2019-04-26T02:07:06.020Z,63.40
2019-04-26T02:09:34.879Z,63.80
2019-04-26T02:12:04.340Z,61.20
2019-04-26T02:14:33.344Z,60.70
2019-04-26T02:17:03.334Z,60.90
2019-04-26T02:19:45.045Z,59.80
2019-04-26T02:22:19.198Z,58.80
2019-04-26T02:24:50.335Z,59.60
2019-04-26T02:27:21.524Z,61.80
2019-04-26T02:29:51.080Z,61.00
2019-04-26T02:32:19.858Z,61.90
2019-04-26T02:34:49.273Z,62.10
2019-04-26T02:37:18.763Z,61.50
2019-04-26T02:39:47.938Z,62.50
2019-04-26T02:42:28.794Z,61.60
2019-04-26T02:45:34.262Z,59.90
2019-04-26T02:48:23.255Z,59.80
2019-04-26T02:51:13.897Z,59.00
2019-04-26T02:54:19.629Z,61.50
2019-04-26T02:56:49.252Z,61.70
2019-04-26T03:02:10.717Z,63.10
2019-04-26T03:04:40.276Z,62.60
2019-04-26T03:07:10.705Z,63.40
2019-04-26T03:09:43.012Z,63.40
2019-04-26T03:12:15.579Z,62.00
2019-04-26T03:14:54.222Z,61.80
2019-04-26T03:20:40.259Z,62.30
2019-04-26T03:23:15.802Z,61.10
2019-04-26T03:26:03.779Z,59.90
2019-04-26T03:28:54.307Z,59.40
2019-04-26T03:31:27.100Z,59.00
2019-04-26T03:34:00.000Z,58.50
2019-04-26T03:37:20.934Z,57.90
2019-04-26T03:39:57.048Z,58.90
2019-04-26T03:42:46.321Z,58.70
2019-04-26T03:45:42.164Z,57.70
2019-04-26T03:48:35.906Z,58.30
2019-04-26T03:51:39.106Z,57.00
2019-04-26T03:54:17.425Z,58.20
2019-04-26T03:56:51.274Z,58.50
2019-04-26T03:59:36.207Z,57.30
2019-04-26T04:02:26.845Z,57.00
2019-04-26T04:05:27.855Z,57.20
2019-04-26T04:07:58.433Z,56.60
2019-04-26T04:10:28.852Z,56.20
2019-04-26T04:13:10.636Z,57.00
2019-04-26T04:18:30.778Z,58.70
2019-04-26T04:21:25.588Z,54.20
2019-04-26T04:24:19.105Z,59.20
2019-04-26T04:27:20.414Z,58.70
2019-04-26T04:30:16.901Z,58.20
2019-04-26T04:33:14.589Z,56.10
2019-04-26T04:35:49.208Z,58.50
2019-04-26T04:38:24.316Z,55.30
2019-04-26T04:41:18.844Z,55.60
2019-04-26T04:44:08.185Z,56.30
2019-04-26T04:46:54.324Z,58.90
2019-04-26T04:49:30.632Z,59.70
2019-04-26T04:52:29.958Z,53.90
2019-04-26T04:55:14.291Z,57.20
2019-04-26T04:58:23.084Z,53.40
2019-04-26T05:01:15.084Z,57.50
2019-04-26T05:03:51.045Z,52.70
2019-04-26T05:06:34.238Z,52.30
2019-04-26T05:09:07.488Z,50.70
2019-04-26T05:11:46.247Z,49.90
2019-04-26T05:14:50.639Z,48.70
2019-04-26T05:17:32.131Z,51.40
2019-04-26T05:20:31.873Z,50.70
2019-04-26T05:23:11.027Z,51.20
2019-04-26T05:26:07.712Z,49.80
2019-04-26T05:28:51.704Z,48.80
2019-04-26T05:31:34.948Z,47.80
2019-04-26T05:34:11.842Z,46.80
2019-04-26T05:37:21.868Z,47.10
2019-04-26T05:40:18.323Z,48.40
2019-04-26T05:42:53.696Z,48.60
2019-04-26T05:45:50.456Z,46.80
2019-04-26T05:51:44.082Z,47.50
2019-04-26T05:54:56.821Z,48.60
2019-04-26T05:57:43.087Z,46.90
2019-04-26T06:00:31.819Z,47.30
2019-04-26T06:03:25.453Z,45.70
2019-04-26T06:06:16.335Z,45.70
2019-04-26T06:09:02.469Z,47.70
2019-04-26T06:14:52.994Z,46.00
2019-04-26T06:17:48.945Z,44.90
2019-04-26T06:20:31.148Z,44.50
2019-04-26T06:23:13.077Z,44.50
2019-04-26T06:25:47.392Z,43.70
2019-04-26T06:28:35.194Z,43.60
2019-04-26T06:31:07.948Z,45.70
2019-04-26T06:33:56.593Z,42.70
2019-04-26T06:36:42.919Z,45.30
2019-04-26T06:39:34.210Z,44.10
2019-04-26T06:42:48.457Z,43.80
2019-04-26T06:45:28.424Z,45.50
2019-04-26T06:48:14.556Z,43.00
2019-04-26T06:51:22.483Z,43.30
2019-04-26T06:53:58.876Z,45.20
2019-04-26T06:59:48.372Z,43.10
2019-04-26T07:02:57.665Z,43.30
2019-04-26T07:05:33.827Z,41.80
2019-04-26T07:08:06.828Z,41.40
2019-04-26T07:11:00.749Z,39.30
2019-04-26T07:16:54.907Z,42.10
2019-04-26T07:20:03.237Z,38.50
2019-04-26T07:22:45.574Z,41.60
2019-04-26T07:25:48.733Z,40.80
2019-04-26T07:28:51.193Z,42.80
2019-04-26T07:31:47.573Z,41.90
2019-04-26T07:34:24.379Z,42.00
2019-04-26T07:37:06.763Z,40.20
2019-04-26T07:39:53.099Z,40.00
2019-04-26T07:42:45.087Z,39.80
2019-04-26T07:45:25.138Z,39.20
2019-04-26T07:48:24.541Z,38.80
2019-04-26T07:51:13.704Z,38.30
2019-04-26T07:54:19.539Z,34.20
2019-04-26T07:57:10.789Z,37.50
2019-04-26T08:00:07.148Z,37.30
2019-04-26T08:02:56.478Z,37.20
2019-04-26T08:05:39.315Z,37.70
2019-04-26T08:08:10.909Z,36.50
2019-04-26T08:10:40.680Z,30.00
2019-04-26T08:13:16.240Z,30.40
2019-04-26T08:15:59.347Z,30.30
2019-04-26T08:18:35.479Z,29.00
2019-04-26T08:21:13.821Z,27.90
2019-04-26T08:23:43.220Z,26.50
2019-04-26T08:26:13.738Z,26.80
2019-04-26T08:28:43.303Z,27.20
2019-04-26T08:31:21.127Z,24.20
2019-04-26T08:33:49.731Z,26.50
2019-04-26T08:36:19.601Z,26.20
2019-04-26T08:38:52.625Z,25.40
2019-04-26T08:41:22.304Z,25.80
2019-04-26T08:43:55.826Z,24.30
2019-04-26T08:46:32.404Z,26.70
2019-04-26T08:49:09.613Z,25.00
2019-04-26T08:51:39.439Z,24.80
2019-04-26T08:54:13.528Z,25.70
2019-04-26T08:56:46.134Z,24.80
2019-04-26T08:59:24.175Z,25.00
2019-04-26T09:01:56.300Z,27.80
2019-04-26T09:04:35.576Z,24.80
2019-04-26T09:07:12.400Z,23.70
2019-04-26T09:09:42.010Z,25.20
2019-04-26T09:12:22.461Z,24.90
2019-04-26T09:14:46.435Z,24.90
2019-04-26T09:17:16.083Z,24.50
2019-04-26T09:19:46.296Z,25.10
2019-04-26T09:22:17.427Z,25.30
2019-04-26T09:24:48.718Z,24.30
2019-04-26T09:27:21.113Z,25.00
2019-04-26T09:30:05.102Z,24.70
2019-04-26T09:32:34.980Z,25.20
2019-04-26T09:35:06.307Z,24.90
2019-04-26T09:37:35.856Z,23.20
2019-04-26T09:40:10.342Z,24.60
2019-04-26T09:42:47.351Z,26.80
2019-04-26T09:45:18.480Z,23.40
2019-04-26T09:47:55.346Z,24.70
2019-04-26T09:50:32.580Z,24.60
2019-04-26T09:53:02.124Z,23.50
2019-04-26T09:55:35.556Z,24.40
2019-04-26T09:58:02.840Z,24.20
2019-04-26T10:00:32.315Z,24.90
2019-04-26T10:03:05.416Z,27.80
2019-04-26T10:05:34.513Z,25.20
2019-04-26T10:08:04.415Z,24.90
2019-04-26T10:10:35.445Z,23.50
2019-04-26T10:13:07.099Z,23.20
2019-04-26T10:15:47.396Z,24.30
2019-04-26T10:18:20.464Z,24.40
2019-04-26T10:20:49.912Z,23.20
2019-04-26T10:23:19.459Z,23.90
2019-04-26T10:25:51.914Z,24.40
2019-04-26T10:28:20.167Z,23.80
2019-04-26T10:30:50.588Z,23.30
2019-04-26T10:33:20.141Z,22.30
2019-04-26T10:35:52.494Z,23.50
2019-04-26T10:38:23.924Z,24.80
2019-04-26T10:40:51.955Z,23.30
2019-04-26T10:43:22.540Z,23.40
2019-04-26T10:45:53.938Z,24.10
2019-04-26T10:48:23.373Z,24.10
2019-04-26T10:50:53.399Z,23.90
2019-04-26T10:53:25.654Z,24.40
2019-04-26T10:56:14.465Z,24.80
2019-04-26T10:58:45.660Z,24.20
2019-04-26T11:01:17.641Z,24.00
2019-04-26T11:03:47.123Z,24.30
2019-04-26T11:06:16.628Z,24.50
2019-04-26T11:08:46.095Z,24.70
2019-04-26T11:11:15.651Z,24.50
2019-04-26T11:13:46.508Z,24.10
2019-04-26T11:16:16.131Z,24.70
2019-04-26T11:18:45.599Z,23.70
2019-04-26T11:21:16.258Z,24.50
2019-04-26T11:23:47.006Z,24.30
2019-04-26T11:26:16.811Z,23.20
2019-04-26T11:28:47.459Z,24.00
2019-04-26T11:31:17.024Z,23.40
2019-04-26T11:33:49.576Z,23.00
2019-04-26T11:36:17.508Z,24.10
2019-04-26T11:38:46.988Z,24.60
2019-04-26T11:41:16.598Z,24.40
2019-04-26T11:43:48.986Z,23.60
2019-04-26T11:46:17.319Z,24.40
2019-04-26T11:48:58.388Z,24.30
2019-04-26T11:51:27.488Z,23.60
2019-04-26T11:53:55.098Z,24.10
2019-04-26T11:56:24.702Z,24.50
2019-04-26T11:58:56.896Z,24.00
2019-04-26T12:01:26.985Z,24.10
2019-04-26T12:04:01.021Z,24.20
2019-04-26T12:06:47.208Z,22.30
2019-04-26T12:09:18.376Z,23.20
2019-04-26T12:11:49.609Z,23.50
2019-04-26T12:14:20.741Z,23.20
2019-04-26T12:16:55.004Z,22.20
2019-04-26T12:19:21.973Z,24.10
2019-04-26T12:21:51.521Z,25.00
2019-04-26T12:24:21.155Z,23.80
2019-04-26T12:26:55.996Z,23.90
2019-04-26T12:29:23.508Z,24.70
2019-04-26T12:31:53.043Z,26.60
2019-04-26T12:34:22.587Z,27.30
2019-04-26T12:36:52.216Z,32.20
2019-04-26T12:39:22.583Z,36.40
2019-04-26T12:41:52.136Z,28.80
2019-04-26T12:44:22.072Z,30.30
2019-04-26T12:46:59.427Z,33.60
2019-04-26T12:49:30.491Z,43.40
2019-04-26T12:52:01.141Z,45.40
2019-04-26T12:54:31.813Z,54.30
2019-04-26T12:57:05.434Z,50.90
2019-04-26T12:59:43.581Z,59.70
2019-04-26T13:02:05.795Z,64.90
2019-04-26T13:04:36.170Z,64.10
2019-04-26T13:10:35.556Z,58.80
2019-04-26T13:13:08.703Z,61.80
2019-04-26T13:16:01.700Z,53.40
2019-04-26T13:18:32.023Z,61.30
2019-04-26T13:21:03.110Z,66.10
2019-04-26T13:23:32.675Z,61.40
2019-04-26T13:26:02.160Z,64.50
2019-04-26T13:28:31.022Z,56.90
2019-04-26T13:31:02.188Z,66.30
2019-04-26T13:33:31.808Z,62.80
2019-04-26T13:36:03.262Z,62.20
2019-04-26T13:38:32.547Z,59.10
2019-04-26T13:41:04.773Z,59.60
2019-04-26T13:43:33.345Z,53.10
2019-04-26T13:46:05.759Z,59.40
2019-04-26T13:48:43.811Z,57.90
2019-04-26T13:51:24.714Z,55.70
2019-04-26T13:53:54.428Z,56.90
2019-04-26T13:56:24.052Z,56.00
2019-04-26T13:58:54.452Z,57.50
2019-04-26T14:01:24.787Z,57.50
2019-04-26T14:03:54.420Z,55.40
2019-04-26T14:06:23.912Z,52.40
2019-04-26T14:08:53.907Z,52.80
2019-04-26T14:11:28.198Z,52.10
2019-04-26T14:14:00.107Z,53.90
2019-04-26T14:16:27.601Z,50.80
2019-04-26T14:18:59.959Z,51.20
2019-04-26T14:21:33.132Z,53.30
2019-04-26T14:24:08.547Z,51.10
2019-04-26T14:26:41.359Z,51.20
2019-04-26T14:29:11.163Z,49.00
2019-04-26T14:31:40.659Z,51.10
2019-04-26T14:34:12.065Z,50.30
2019-04-26T14:36:43.742Z,52.00
2019-04-26T14:39:14.862Z,51.50
2019-04-26T14:41:43.795Z,53.10
2019-04-26T14:44:15.883Z,53.10
2019-04-26T14:46:48.954Z,50.20
2019-04-26T14:49:19.098Z,51.50
2019-04-26T14:51:47.027Z,49.70
2019-04-26T14:54:18.004Z,50.50
2019-04-26T14:57:10.341Z,49.20
2019-04-26T14:59:44.384Z,49.20
2019-04-26T15:02:27.693Z,47.60
2019-04-26T15:05:16.612Z,49.60
2019-04-26T15:07:51.111Z,47.50
2019-04-26T15:10:18.983Z,46.00
2019-04-26T15:12:52.823Z,48.10
2019-04-26T15:15:21.678Z,47.60
2019-04-26T15:17:53.620Z,49.60
2019-04-26T15:20:24.338Z,48.00
2019-04-26T15:22:55.392Z,47.60
2019-04-26T15:25:25.004Z,48.00
2019-04-26T15:27:54.628Z,48.10
2019-04-26T15:30:24.173Z,48.60
2019-04-26T15:32:53.728Z,49.80
2019-04-26T15:35:24.579Z,51.70
2019-04-26T15:37:57.498Z,57.50
2019-04-26T15:40:27.395Z,63.00
2019-04-26T15:43:02.980Z,64.70
2019-04-26T15:45:38.541Z,62.00
2019-04-26T15:48:22.987Z,68.30
2019-04-26T15:50:54.124Z,67.00
2019-04-26T15:53:36.620Z,63.90
2019-04-26T15:56:06.312Z,50.50
2019-04-26T15:58:38.577Z,46.50
2019-04-26T16:01:10.901Z,49.10
2019-04-26T16:03:40.855Z,57.30
2019-04-26T16:06:09.769Z,58.30
2019-04-26T16:08:42.563Z,58.00
2019-04-26T16:11:11.313Z,64.50
2019-04-26T16:13:49.350Z,50.00
2019-04-26T16:16:16.311Z,63.10
2019-04-26T16:18:44.635Z,60.20
2019-04-26T16:21:17.766Z,54.90
2019-04-26T16:23:51.156Z,56.30
2019-04-26T16:26:16.640Z,53.60
2019-04-26T16:29:06.035Z,51.10
2019-04-26T16:31:42.174Z,51.80
2019-04-26T16:34:12.209Z,52.70
2019-04-26T16:36:45.141Z,58.60
2019-04-26T16:39:13.201Z,54.20
2019-04-26T16:41:43.078Z,55.00
2019-04-26T16:44:13.045Z,56.20
2019-04-26T16:46:43.860Z,56.60
2019-04-26T16:49:14.631Z,56.60
2019-04-26T16:51:43.711Z,57.80
2019-04-26T16:54:21.332Z,56.20
2019-04-26T16:56:44.399Z,56.40
2019-04-26T16:59:22.880Z,61.50
2019-04-26T17:01:47.452Z,61.60
2019-04-26T17:04:20.092Z,60.10
2019-04-26T17:06:48.717Z,60.40
2019-04-26T17:09:18.345Z,61.70
2019-04-26T17:11:48.001Z,61.30
2019-04-26T17:14:17.613Z,64.80
2019-04-26T17:16:47.523Z,65.80
2019-04-26T17:19:19.757Z,64.10
2019-04-26T17:21:50.035Z,66.90
2019-04-26T17:24:27.171Z,66.00
2019-04-26T17:26:58.283Z,66.90
2019-04-26T17:29:27.912Z,67.40
2019-04-26T17:34:31.135Z,71.20
2019-04-26T17:36:58.101Z,65.60
2019-04-26T17:39:24.960Z,65.60
2019-04-26T17:41:54.261Z,66.60
2019-04-26T17:44:26.314Z,65.40
2019-04-26T17:46:56.203Z,64.80
2019-04-26T17:49:21.435Z,64.60
2019-04-26T17:51:46.399Z,64.60
2019-04-26T17:54:40.774Z,64.40
2019-04-26T17:56:42.307Z,64.90
2019-04-26T17:59:12.197Z,66.70
2019-04-26T18:01:45.296Z,65.50
2019-04-26T18:04:07.015Z,65.70
2019-04-26T18:06:34.145Z,64.30
2019-04-26T18:09:01.296Z,64.20
2019-04-26T18:11:30.289Z,63.60
2019-04-26T18:13:57.441Z,63.50
2019-04-26T18:16:29.274Z,63.60
2019-04-26T18:19:12.794Z,63.50
2019-04-26T18:21:44.391Z,63.50
2019-04-26T18:24:13.015Z,64.10
2019-04-26T18:26:59.315Z,63.70
2019-04-26T18:29:23.672Z,63.60
2019-04-26T18:31:53.494Z,63.30
2019-04-26T18:34:21.130Z,63.00
2019-04-26T18:36:48.182Z,63.20
2019-04-26T18:39:18.011Z,62.60
2019-04-26T18:41:44.407Z,62.10
2019-04-26T18:44:11.259Z,62.40
2019-04-26T18:46:42.939Z,62.60
2019-04-26T18:49:11.407Z,62.50
2019-04-26T18:51:37.287Z,62.20
2019-04-26T18:54:23.414Z,62.30
2019-04-26T18:56:53.348Z,62.40
2019-04-26T18:59:20.813Z,62.00
2019-04-26T19:01:47.881Z,60.80
2019-04-26T19:04:15.538Z,62.20
2019-04-26T19:06:43.469Z,62.30
2019-04-26T19:09:25.825Z,62.40
2019-04-26T19:11:53.566Z,61.60
2019-04-26T19:14:29.191Z,62.10
2019-04-26T19:17:14.795Z,62.80
2019-04-26T19:19:43.767Z,62.10
2019-04-26T19:22:32.199Z,62.50
2019-04-26T19:25:18.817Z,62.40
2019-04-26T19:27:47.113Z,62.70
2019-04-26T19:30:09.131Z,62.50
2019-04-26T19:32:35.433Z,63.30
2019-04-26T19:35:07.016Z,62.40
2019-04-26T19:37:36.776Z,63.50
2019-04-26T19:40:02.897Z,62.10
2019-04-26T19:42:36.656Z,62.40
2019-04-26T19:45:13.712Z,62.40
2019-04-26T19:47:52.461Z,63.00
2019-04-26T19:50:42.022Z,62.10
2019-04-26T19:53:19.729Z,62.00
2019-04-26T19:56:04.599Z,61.80
2019-04-26T19:58:36.358Z,62.50
2019-04-26T20:01:04.348Z,61.80
2019-04-26T20:03:32.084Z,62.00
2019-04-26T20:06:00.070Z,61.70
2019-04-26T20:08:29.368Z,61.80
2019-04-26T20:10:55.885Z,62.10
2019-04-26T20:13:22.946Z,61.50
2019-04-26T20:15:51.441Z,62.10
2019-04-26T20:18:20.940Z,62.30
2019-04-26T20:20:47.775Z,62.20
2019-04-26T20:23:14.925Z,62.00
2019-04-26T20:25:42.084Z,62.70
2019-04-26T20:28:09.224Z,62.20
2019-04-26T20:30:47.127Z,61.60
2019-04-26T20:33:14.279Z,61.60
2019-04-26T20:35:42.421Z,61.60
2019-04-26T20:38:09.806Z,61.30
2019-04-26T20:40:37.571Z,61.20
2019-04-26T20:43:06.926Z,61.40
2019-04-26T20:45:41.473Z,61.40
2019-04-26T20:48:02.360Z,61.20
2019-04-26T20:50:35.163Z,61.50
2019-04-26T20:53:04.385Z,61.40
2019-04-26T20:55:52.705Z,61.60
2019-04-26T20:58:19.882Z,61.90
2019-04-26T21:00:54.092Z,62.00
2019-04-26T21:03:23.719Z,62.50
2019-04-26T21:05:46.559Z,61.90
2019-04-26T21:08:32.512Z,62.10
2019-04-26T21:11:00.261Z,61.80
2019-04-26T21:13:47.999Z,61.60
2019-04-26T21:16:15.619Z,61.90
2019-04-26T21:18:44.327Z,61.80
2019-04-26T21:21:12.039Z,61.70
2019-04-26T21:23:40.205Z,61.70
2019-04-26T21:28:55.672Z,61.90
2019-04-26T21:31:24.323Z,61.90
2019-04-26T21:33:56.831Z,62.00
2019-04-26T21:36:40.534Z,62.20
2019-04-26T21:39:23.892Z,62.10
2019-04-26T21:41:53.212Z,62.60
2019-04-26T21:44:20.107Z,62.40
2019-04-26T21:46:49.717Z,62.90
2019-04-26T21:49:20.393Z,63.30
2019-04-26T21:51:44.703Z,63.00
2019-04-26T21:54:14.414Z,63.30
2019-04-26T21:56:48.405Z,63.40
2019-04-26T21:59:11.100Z,63.50
2019-04-26T22:01:38.215Z,63.90
2019-04-26T22:04:06.867Z,63.30
2019-04-26T22:06:33.872Z,63.70
2019-04-26T22:09:04.747Z,64.30
2019-04-26T22:11:32.871Z,64.00
2019-04-26T22:14:03.104Z,63.90
2019-04-26T22:16:48.695Z,63.80
2019-04-26T22:22:25.064Z,64.30
2019-04-26T22:24:55.515Z,65.10
2019-04-26T22:27:25.266Z,65.70
2019-04-26T22:29:51.775Z,65.00
2019-04-26T22:32:19.858Z,64.80
2019-04-26T22:34:46.812Z,64.80
2019-04-26T22:37:16.141Z,65.20
2019-04-26T22:39:44.361Z,65.20
2019-04-26T22:42:13.796Z,66.20
2019-04-26T22:44:48.779Z,65.70
2019-04-26T22:47:18.181Z,65.50
2019-04-26T22:49:45.260Z,66.00
2019-04-26T22:52:16.230Z,66.20
2019-04-26T22:54:44.888Z,67.20
2019-04-26T22:57:13.031Z,67.10
2019-04-26T22:59:43.288Z,67.00
2019-04-26T23:04:49.018Z,68.90
2019-04-26T23:07:18.540Z,70.00
2019-04-26T23:09:51.342Z,69.50
2019-04-26T23:12:30.719Z,69.90
2019-04-26T23:15:16.032Z,71.00
2019-04-26T23:17:53.376Z,71.50
2019-04-26T23:20:29.226Z,71.70
2019-04-26T23:22:56.426Z,71.70
2019-04-26T23:25:23.807Z,71.90
2019-04-26T23:27:56.704Z,72.70
2019-04-26T23:30:19.697Z,73.30
2019-04-26T23:32:48.606Z,73.60
2019-04-26T23:35:15.107Z,74.10
2019-04-26T23:37:42.048Z,74.30
2019-04-26T23:40:09.419Z,74.40
2019-04-26T23:42:36.383Z,76.60
2019-04-26T23:45:04.824Z,75.90
2019-04-26T23:47:35.172Z,77.80
2019-04-26T23:50:00.519Z,76.20
2019-04-26T23:52:27.484Z,76.70
2019-04-26T23:54:54.312Z,77.10
2019-04-26T23:57:21.188Z,76.30
2019-04-26T23:59:51.159Z,76.80
